createdAt,value
2019-04-04T00:01:51.322Z,5.30
2019-04-04T00:04:37.203Z,5.22
2019-04-04T00:07:23.611Z,5.33
2019-04-04T00:10:09.308Z,5.78
2019-04-04T00:12:55.379Z,5.40
2019-04-04T00:15:45.335Z,5.20
2019-04-04T00:18:31.463Z,5.22
2019-04-04T00:21:17.149Z,5.50
2019-04-04T00:24:03.591Z,5.53
2019-04-04T00:26:49.875Z,5.42
2019-04-04T00:29:36.996Z,5.20
2019-04-04T00:32:23.460Z,5.12
2019-04-04T00:35:09.611Z,5.33
2019-04-04T00:37:55.895Z,5.33
2019-04-04T00:40:42.519Z,5.10
2019-04-04T00:43:29.548Z,5.80
2019-04-04T00:46:15.687Z,5.37
2019-04-04T00:49:04.586Z,5.37
2019-04-04T00:51:49.858Z,5.12
2019-04-04T00:54:35.985Z,5.28
2019-04-04T00:57:22.230Z,5.00
2019-04-04T01:00:08.677Z,5.33
2019-04-04T01:02:54.721Z,5.10
2019-04-04T01:05:40.943Z,5.20
2019-04-04T01:08:27.165Z,4.92
2019-04-04T01:11:13.500Z,5.05
2019-04-04T01:13:59.648Z,5.28
2019-04-04T01:16:45.928Z,5.12
2019-04-04T01:19:31.778Z,5.05
2019-04-04T01:22:18.107Z,5.65
2019-04-04T01:25:05.208Z,4.92
2019-04-04T01:27:51.631Z,4.90
2019-04-04T01:30:37.905Z,5.35
2019-04-04T01:33:24.149Z,5.15
2019-04-04T01:36:10.436Z,5.08
2019-04-04T01:38:58.097Z,5.28
2019-04-04T01:41:44.525Z,5.80
2019-04-04T01:44:30.807Z,4.95
2019-04-04T01:47:17.596Z,5.00
2019-04-04T01:50:04.400Z,4.92
2019-04-04T01:52:50.318Z,5.05
2019-04-04T01:55:36.692Z,5.00
2019-04-04T01:58:22.830Z,5.05
2019-04-04T02:01:09.130Z,5.00
2019-04-04T02:03:55.191Z,5.10
2019-04-04T02:06:41.468Z,5.03
2019-04-04T02:09:27.604Z,5.08
2019-04-04T02:12:13.730Z,5.15
2019-04-04T02:15:00.006Z,5.20
2019-04-04T02:17:46.276Z,5.67
2019-04-04T02:20:32.713Z,5.25
2019-04-04T02:23:18.789Z,4.72
2019-04-04T02:26:05.120Z,5.17
2019-04-04T02:28:51.619Z,5.20
2019-04-04T02:31:41.756Z,4.83
2019-04-04T02:34:27.656Z,4.83
2019-04-04T02:37:14.738Z,4.80
2019-04-04T02:40:01.149Z,4.92
2019-04-04T02:42:47.316Z,4.85
2019-04-04T02:45:35.734Z,5.28
2019-04-04T02:48:24.478Z,5.05
2019-04-04T02:51:08.851Z,4.37
2019-04-04T02:53:54.883Z,5.20
2019-04-04T02:56:41.242Z,4.80
2019-04-04T02:59:27.364Z,5.20
2019-04-04T03:02:13.492Z,5.05
2019-04-04T03:04:59.712Z,4.75
2019-04-04T03:07:46.104Z,4.58
2019-04-04T03:10:32.249Z,4.90
2019-04-04T03:13:18.465Z,4.90
2019-04-04T03:16:04.821Z,5.03
2019-04-04T03:18:50.821Z,4.95
2019-04-04T03:21:37.012Z,4.90
2019-04-04T03:24:23.334Z,4.85
2019-04-04T03:27:09.455Z,4.67
2019-04-04T03:29:55.955Z,4.53
2019-04-04T03:32:42.039Z,5.00
2019-04-04T03:35:29.205Z,4.75
2019-04-04T03:38:15.642Z,4.85
2019-04-04T03:41:01.652Z,4.85
2019-04-04T03:43:48.995Z,4.78
2019-04-04T03:46:38.864Z,4.95
2019-04-04T03:49:24.312Z,4.80
2019-04-04T03:52:11.626Z,4.92
2019-04-04T03:54:58.788Z,4.22
2019-04-04T03:57:44.527Z,4.90
2019-04-04T04:00:30.975Z,4.70
2019-04-04T04:03:16.963Z,4.80
2019-04-04T04:06:03.003Z,4.55
2019-04-04T04:08:53.667Z,4.80
2019-04-04T04:11:37.424Z,4.50
2019-04-04T04:14:24.389Z,4.75
2019-04-04T04:17:11.704Z,5.08
2019-04-04T04:19:58.198Z,4.60
2019-04-04T04:22:44.356Z,4.95
2019-04-04T04:25:35.291Z,4.92
2019-04-04T04:28:20.752Z,4.80
2019-04-04T04:31:06.858Z,4.62
2019-04-04T04:33:52.897Z,4.75
2019-04-04T04:36:39.304Z,4.55
2019-04-04T04:39:25.512Z,4.65
2019-04-04T04:42:12.400Z,4.80
2019-04-04T04:44:58.528Z,4.72
2019-04-04T04:47:44.687Z,5.12
2019-04-04T04:50:30.847Z,4.83
2019-04-04T04:53:18.934Z,4.50
2019-04-04T04:56:04.671Z,4.75
2019-04-04T04:58:51.039Z,4.72
2019-04-04T05:01:37.203Z,5.60
2019-04-04T05:04:23.424Z,6.12
2019-04-04T05:07:10.623Z,6.70
2019-04-04T05:09:56.876Z,5.92
2019-04-04T05:12:42.903Z,6.03
2019-04-04T05:15:30.430Z,6.12
2019-04-04T05:18:17.072Z,5.80
2019-04-04T05:21:03.235Z,6.00
2019-04-04T05:23:49.379Z,6.08
2019-04-04T05:26:38.426Z,5.72
2019-04-04T05:29:23.232Z,5.80
2019-04-04T05:32:09.103Z,5.78
2019-04-04T05:34:55.325Z,5.62
2019-04-04T05:37:41.508Z,5.60
2019-04-04T05:40:30.513Z,6.05
2019-04-04T05:43:16.440Z,5.85
2019-04-04T05:46:02.483Z,5.75
2019-04-04T05:48:48.233Z,5.58
2019-04-04T05:51:36.188Z,5.35
2019-04-04T05:54:22.028Z,5.55
2019-04-04T05:57:08.208Z,5.20
2019-04-04T05:59:55.966Z,5.50
2019-04-04T06:02:43.283Z,5.70
2019-04-04T06:05:31.821Z,5.40
2019-04-04T06:08:17.654Z,5.20
2019-04-04T06:11:03.853Z,5.40
2019-04-04T06:13:50.045Z,5.10
2019-04-04T06:16:36.325Z,5.45
2019-04-04T06:19:22.368Z,5.08
2019-04-04T06:22:09.099Z,5.12
2019-04-04T06:24:54.712Z,5.30
2019-04-04T06:27:40.969Z,5.12
2019-04-04T06:30:28.291Z,4.95
2019-04-04T06:33:14.377Z,5.00
2019-04-04T06:36:00.563Z,5.00
2019-04-04T06:38:49.721Z,5.30
2019-04-04T06:41:34.856Z,5.30
2019-04-04T06:44:21.089Z,4.87
2019-04-04T06:47:06.749Z,5.08
2019-04-04T06:49:53.023Z,4.90
2019-04-04T06:52:39.047Z,5.00
2019-04-04T06:55:28.453Z,5.17
2019-04-04T06:58:12.973Z,4.80
2019-04-04T07:00:59.233Z,5.20
2019-04-04T07:03:45.540Z,5.22
2019-04-04T07:06:31.745Z,5.28
2019-04-04T07:09:19.026Z,5.22
2019-04-04T07:12:06.684Z,4.70
2019-04-04T07:14:52.831Z,5.17
2019-04-04T07:17:40.268Z,5.25
2019-04-04T07:20:28.311Z,4.95
2019-04-04T07:23:14.556Z,5.10
2019-04-04T07:26:00.508Z,4.90
2019-04-04T07:28:49.619Z,5.30
2019-04-04T07:31:38.022Z,5.15
2019-04-04T07:34:21.662Z,4.92
2019-04-04T07:37:07.832Z,5.17
2019-04-04T07:39:53.910Z,5.30
2019-04-04T07:42:40.382Z,5.30
2019-04-04T07:45:26.973Z,5.15
2019-04-04T07:48:12.760Z,5.20
2019-04-04T07:50:59.280Z,5.17
2019-04-04T07:53:45.231Z,5.25
2019-04-04T07:56:31.539Z,5.30
2019-04-04T07:59:17.520Z,4.92
2019-04-04T08:02:03.803Z,5.70
2019-04-04T08:04:49.870Z,5.00
2019-04-04T08:07:36.827Z,6.00
2019-04-04T08:10:22.883Z,5.87
2019-04-04T08:13:09.085Z,5.55
2019-04-04T08:15:55.816Z,5.47
2019-04-04T08:18:41.979Z,5.12
2019-04-04T08:21:28.111Z,5.72
2019-04-04T08:24:14.458Z,5.50
2019-04-04T08:27:00.547Z,5.60
2019-04-04T08:29:47.639Z,5.45
2019-04-04T08:32:33.831Z,5.55
2019-04-04T08:35:19.932Z,5.50
2019-04-04T08:38:05.815Z,5.42
2019-04-04T08:40:52.279Z,5.47
2019-04-04T08:43:38.432Z,5.47
2019-04-04T08:46:24.784Z,5.65
2019-04-04T08:49:10.851Z,5.72
2019-04-04T08:51:57.019Z,6.20
2019-04-04T08:54:42.849Z,5.97
2019-04-04T08:57:29.149Z,6.00
2019-04-04T09:00:15.244Z,6.20
2019-04-04T09:03:01.428Z,5.70
2019-04-04T09:05:47.524Z,5.72
2019-04-04T09:08:33.905Z,6.28
2019-04-04T09:11:20.652Z,6.17
2019-04-04T09:14:06.301Z,6.10
2019-04-04T09:16:52.429Z,6.10
2019-04-04T09:19:38.216Z,5.95
2019-04-04T09:22:24.405Z,6.12
2019-04-04T09:25:10.946Z,6.12
2019-04-04T09:27:57.292Z,5.90
2019-04-04T09:30:43.406Z,6.42
2019-04-04T09:33:29.719Z,6.53
2019-04-04T09:36:15.819Z,6.60
2019-04-04T09:39:02.281Z,6.35
2019-04-04T09:41:49.361Z,6.25
2019-04-04T09:44:35.397Z,6.53
2019-04-04T09:47:21.619Z,6.33
2019-04-04T09:50:08.475Z,6.62
2019-04-04T09:52:54.479Z,6.80
2019-04-04T09:55:40.147Z,6.53
2019-04-04T09:58:26.983Z,6.85
2019-04-04T10:01:13.051Z,7.30
2019-04-04T10:03:59.419Z,6.65
2019-04-04T10:06:45.451Z,6.70
2019-04-04T10:09:31.639Z,6.65
2019-04-04T10:12:17.879Z,6.83
2019-04-04T10:15:04.358Z,6.92
2019-04-04T10:17:50.326Z,6.90
2019-04-04T10:20:36.559Z,7.20
2019-04-04T10:23:22.644Z,7.00
2019-04-04T10:26:08.432Z,6.92
2019-04-04T10:28:54.482Z,7.22
2019-04-04T10:31:40.607Z,7.10
2019-04-04T10:34:28.413Z,7.15
2019-04-04T10:37:14.652Z,6.95
2019-04-04T10:40:00.656Z,7.17
2019-04-04T10:42:46.688Z,6.78
2019-04-04T10:45:32.906Z,7.12
2019-04-04T10:48:19.045Z,7.10
2019-04-04T10:51:05.299Z,6.95
2019-04-04T10:53:51.646Z,6.90
2019-04-04T10:56:37.780Z,7.33
2019-04-04T10:59:24.022Z,7.15
2019-04-04T11:02:10.175Z,7.10
2019-04-04T11:04:56.039Z,7.05
2019-04-04T11:07:42.071Z,7.28
2019-04-04T11:10:28.068Z,7.10
2019-04-04T11:13:14.437Z,7.30
2019-04-04T11:16:00.668Z,6.85
2019-04-04T11:18:46.687Z,7.12
2019-04-04T11:21:32.665Z,7.28
2019-04-04T11:24:18.747Z,7.53
2019-04-04T11:27:05.140Z,7.25
2019-04-04T11:29:51.315Z,7.55
2019-04-04T11:32:37.396Z,7.08
2019-04-04T11:35:23.026Z,7.33
2019-04-04T11:38:09.277Z,7.47
2019-04-04T11:40:55.591Z,7.60
2019-04-04T11:43:41.551Z,6.95
2019-04-04T11:46:27.643Z,7.12
2019-04-04T11:49:14.706Z,7.37
2019-04-04T11:52:00.891Z,7.33
2019-04-04T11:54:57.786Z,7.25
2019-04-04T11:57:43.707Z,7.40
2019-04-04T12:00:31.955Z,7.37
2019-04-04T12:03:17.705Z,7.08
2019-04-04T12:06:03.912Z,7.15
2019-04-04T12:08:50.024Z,7.55
2019-04-04T12:11:37.336Z,7.17
2019-04-04T12:14:23.570Z,7.20
2019-04-04T12:17:09.630Z,7.25
2019-04-04T12:19:55.799Z,6.50
2019-04-04T12:22:41.915Z,7.03
2019-04-04T12:25:27.960Z,7.37
2019-04-04T12:28:14.430Z,7.30
2019-04-04T12:31:00.465Z,7.08
2019-04-04T12:33:47.224Z,7.05
2019-04-04T12:36:33.510Z,7.65
2019-04-04T12:39:20.545Z,7.83
2019-04-04T12:42:06.680Z,7.03
2019-04-04T12:44:52.946Z,7.10
2019-04-04T12:47:39.046Z,6.95
2019-04-04T12:50:25.364Z,7.12
2019-04-04T12:53:11.517Z,7.45
2019-04-04T12:55:57.648Z,7.03
2019-04-04T12:58:44.296Z,7.55
2019-04-04T13:01:31.492Z,7.03
2019-04-04T13:04:17.603Z,6.80
2019-04-04T13:07:03.811Z,7.20
2019-04-04T13:09:49.969Z,7.20
2019-04-04T13:12:36.114Z,7.40
2019-04-04T13:15:22.335Z,6.92
2019-04-04T13:18:08.476Z,7.03
2019-04-04T13:20:54.563Z,7.30
2019-04-04T13:23:40.885Z,7.35
2019-04-04T13:26:27.085Z,7.08
2019-04-04T13:29:13.166Z,7.08
2019-04-04T13:31:59.354Z,7.30
2019-04-04T13:34:58.758Z,6.90
2019-04-04T13:37:36.258Z,7.35
2019-04-04T13:40:22.321Z,6.95
2019-04-04T13:43:08.449Z,7.60
2019-04-04T13:45:54.609Z,7.00
2019-04-04T13:48:43.107Z,7.00
2019-04-04T13:51:29.469Z,8.10
2019-04-04T13:54:15.599Z,6.80
2019-04-04T13:57:01.936Z,7.10
2019-04-04T13:59:48.395Z,7.20
2019-04-04T14:02:35.082Z,6.78
2019-04-04T14:05:21.768Z,7.08
2019-04-04T14:08:08.212Z,7.10
2019-04-04T14:10:58.390Z,7.20
2019-04-04T14:13:42.369Z,7.22
2019-04-04T14:16:28.512Z,7.62
2019-04-04T14:19:14.660Z,7.35
2019-04-04T14:22:00.921Z,7.10
2019-04-04T14:24:48.212Z,7.47
2019-04-04T14:27:34.266Z,7.47
2019-04-04T14:30:20.867Z,7.60
2019-04-04T14:33:07.019Z,7.53
2019-04-04T14:35:53.168Z,7.08
2019-04-04T14:38:39.451Z,7.25
2019-04-04T14:41:25.795Z,7.42
2019-04-04T14:44:11.729Z,7.42
2019-04-04T14:46:58.773Z,8.15
2019-04-04T14:49:45.833Z,7.72
2019-04-04T14:52:32.203Z,7.65
2019-04-04T14:55:18.241Z,7.65
2019-04-04T14:58:04.321Z,6.75
2019-04-04T15:00:50.471Z,7.10
2019-04-04T15:03:36.595Z,7.78
2019-04-04T15:06:22.225Z,7.72
2019-04-04T15:09:10.611Z,7.65
2019-04-04T15:11:56.531Z,7.85
2019-04-04T15:14:42.661Z,7.47
2019-04-04T15:17:29.011Z,7.50
2019-04-04T15:20:15.316Z,7.60
2019-04-04T15:23:01.520Z,7.67
2019-04-04T15:25:47.843Z,8.05
2019-04-04T15:28:33.975Z,7.40
2019-04-04T15:31:20.247Z,7.30
2019-04-04T15:34:06.377Z,7.70
2019-04-04T15:36:52.541Z,7.97
2019-04-04T15:39:38.791Z,8.65
2019-04-04T15:42:25.770Z,10.05
2019-04-04T15:45:12.296Z,8.93
2019-04-04T15:47:58.189Z,10.53
2019-04-04T15:50:44.373Z,10.63
2019-04-04T15:53:30.623Z,10.10
2019-04-04T15:56:16.395Z,14.98
2019-04-04T15:59:02.212Z,23.30
2019-04-04T16:01:48.295Z,22.62
2019-04-04T16:04:34.500Z,16.23
2019-04-04T16:07:20.545Z,19.07
2019-04-04T16:10:08.061Z,19.45
2019-04-04T16:12:53.899Z,20.08
2019-04-04T16:15:40.063Z,19.25
2019-04-04T16:18:25.799Z,19.95
2019-04-04T16:21:13.095Z,17.90
2019-04-04T16:23:59.211Z,17.98
2019-04-04T16:26:45.639Z,17.82
2019-04-04T16:29:31.848Z,17.17
2019-04-04T16:32:18.077Z,17.05
2019-04-04T16:35:05.538Z,16.90
2019-04-04T16:37:51.527Z,16.00
2019-04-04T16:40:37.707Z,15.50
2019-04-04T16:43:23.911Z,15.28
2019-04-04T16:46:10.032Z,15.32
2019-04-04T16:48:55.900Z,14.75
2019-04-04T16:51:41.965Z,14.50
2019-04-04T16:54:28.948Z,14.33
2019-04-04T16:57:14.675Z,14.30
2019-04-04T17:00:01.023Z,14.85
2019-04-04T17:02:47.119Z,13.55
2019-04-04T17:05:33.371Z,13.35
2019-04-04T17:08:19.512Z,13.50
2019-04-04T17:11:05.175Z,12.93
2019-04-04T17:13:51.410Z,12.70
2019-04-04T17:16:37.556Z,12.75
2019-04-04T17:19:23.716Z,12.37
2019-04-04T17:22:09.928Z,12.07
2019-04-04T17:24:57.427Z,12.40
2019-04-04T17:27:43.211Z,12.10
2019-04-04T17:30:29.311Z,11.65
2019-04-04T17:33:15.049Z,11.57
2019-04-04T17:36:01.378Z,10.98
2019-04-04T17:38:49.109Z,11.03
2019-04-04T17:41:35.237Z,11.60
2019-04-04T17:44:21.705Z,10.50
2019-04-04T17:47:07.686Z,10.80
2019-04-04T17:49:55.984Z,11.15
2019-04-04T17:52:42.330Z,10.10
2019-04-04T17:55:28.667Z,10.05
2019-04-04T17:58:16.066Z,10.55
2019-04-04T18:01:06.824Z,10.08
2019-04-04T18:03:52.976Z,9.98
2019-04-04T18:06:40.740Z,10.50
2019-04-04T18:09:31.948Z,10.60
2019-04-04T18:12:16.865Z,8.85
2019-04-04T18:15:02.784Z,8.85
2019-04-04T18:17:49.412Z,8.95
2019-04-04T18:20:35.663Z,9.33
2019-04-04T18:23:21.812Z,8.88
2019-04-04T18:26:07.991Z,8.90
2019-04-04T18:32:27.999Z,9.00
2019-04-04T18:35:15.367Z,8.70
2019-04-04T18:38:01.748Z,8.75
2019-04-04T18:40:48.136Z,8.48
2019-04-04T18:43:34.563Z,9.03
2019-04-04T18:46:21.020Z,8.53
2019-04-04T18:49:07.245Z,8.28
2019-04-04T18:51:53.200Z,7.97
2019-04-04T18:54:39.449Z,8.03
2019-04-04T18:57:25.844Z,8.23
2019-04-04T19:00:13.933Z,8.20
2019-04-04T19:03:00.321Z,8.30
2019-04-04T19:05:46.691Z,8.53
2019-04-04T19:08:33.120Z,8.05
2019-04-04T19:11:18.930Z,7.97
2019-04-04T19:14:05.405Z,8.08
2019-04-04T19:16:51.931Z,7.65
2019-04-04T19:19:38.194Z,7.92
2019-04-04T19:22:24.748Z,8.43
2019-04-04T19:25:13.665Z,7.80
2019-04-04T19:28:00.382Z,7.35
2019-04-04T19:30:47.237Z,7.80
2019-04-04T19:33:33.739Z,8.00
2019-04-04T19:36:20.373Z,7.67
2019-04-04T19:39:10.043Z,7.60
2019-04-04T19:41:56.275Z,7.70
2019-04-04T19:44:52.587Z,8.08
2019-04-04T19:47:30.627Z,7.95
2019-04-04T19:50:16.985Z,7.85
2019-04-04T19:53:03.556Z,7.83
2019-04-04T19:55:53.208Z,7.47
2019-04-04T19:58:44.153Z,7.33
2019-04-04T20:01:30.700Z,7.42
2019-04-04T20:04:17.105Z,7.53
2019-04-04T20:07:03.774Z,7.22
2019-04-04T20:09:50.342Z,7.28
2019-04-04T20:12:36.725Z,7.22
2019-04-04T20:15:23.992Z,8.30
2019-04-04T20:18:10.369Z,7.33
2019-04-04T20:20:57.017Z,7.10
2019-04-04T20:23:43.297Z,7.35
2019-04-04T20:26:29.816Z,7.15
2019-04-04T20:29:16.251Z,7.35
2019-04-04T20:32:02.469Z,7.75
2019-04-04T20:34:48.864Z,7.25
2019-04-04T20:37:35.419Z,6.83
2019-04-04T20:40:21.307Z,6.75
2019-04-04T20:43:07.963Z,6.95
2019-04-04T20:45:54.463Z,7.10
2019-04-04T20:48:40.871Z,6.67
2019-04-04T20:51:27.255Z,6.80
2019-04-04T20:54:14.897Z,7.40
2019-04-04T20:57:01.113Z,6.78
2019-04-04T20:59:47.548Z,7.10
2019-04-04T21:02:33.883Z,6.58
2019-04-04T21:05:20.653Z,6.87
2019-04-04T21:08:06.613Z,6.50
2019-04-04T21:10:54.555Z,6.65
2019-04-04T21:13:41.152Z,7.08
2019-04-04T21:16:28.259Z,6.95
2019-04-04T21:19:14.194Z,7.00
2019-04-04T21:22:00.598Z,6.65
2019-04-04T21:24:47.083Z,6.75
2019-04-04T21:27:33.507Z,6.70
2019-04-04T21:30:20.817Z,6.67
2019-04-04T21:33:07.243Z,6.62
2019-04-04T21:35:53.537Z,7.10
2019-04-04T21:38:41.044Z,7.08
2019-04-04T21:41:28.399Z,6.47
2019-04-04T21:44:15.016Z,7.05
2019-04-04T21:47:01.285Z,6.17
2019-04-04T21:49:48.000Z,6.80
2019-04-04T21:52:34.728Z,7.00
2019-04-04T21:55:20.944Z,6.53
2019-04-04T21:58:07.299Z,7.10
2019-04-04T22:00:54.969Z,6.47
2019-04-04T22:03:41.072Z,7.17
2019-04-04T22:06:27.500Z,7.00
2019-04-04T22:09:16.383Z,6.53
2019-04-04T22:12:02.485Z,6.65
2019-04-04T22:14:48.904Z,6.62
2019-04-04T22:17:35.385Z,6.85
2019-04-04T22:20:21.680Z,7.45
2019-04-04T22:23:07.967Z,6.70
2019-04-04T22:25:54.488Z,7.00
2019-04-04T22:28:40.824Z,6.80
2019-04-04T22:31:27.215Z,7.15
2019-04-04T22:34:13.679Z,6.80
2019-04-04T22:36:59.919Z,6.45
2019-04-04T22:39:45.988Z,7.00
2019-04-04T22:42:32.152Z,6.78
2019-04-04T22:45:18.419Z,6.85
2019-04-04T22:48:04.408Z,7.03
2019-04-04T22:50:50.821Z,6.80
2019-04-04T22:53:37.153Z,6.83
2019-04-04T22:56:23.691Z,6.78
2019-04-04T22:59:09.871Z,6.95
2019-04-04T23:01:57.106Z,6.83
2019-04-04T23:04:43.622Z,6.95
2019-04-04T23:07:29.811Z,6.90
2019-04-04T23:10:15.738Z,6.80
2019-04-04T23:13:03.138Z,6.80
2019-04-04T23:15:49.455Z,6.37
2019-04-04T23:18:35.898Z,6.70
2019-04-04T23:21:23.382Z,7.10
2019-04-04T23:24:09.696Z,6.90
2019-04-04T23:26:56.028Z,6.78
2019-04-04T23:29:42.808Z,6.90
2019-04-04T23:32:28.967Z,6.90
2019-04-04T23:35:16.751Z,6.97
2019-04-04T23:38:03.260Z,7.08
2019-04-04T23:40:49.495Z,6.53
2019-04-04T23:43:35.725Z,6.60
2019-04-04T23:46:21.867Z,6.95
2019-04-04T23:49:07.615Z,7.05
2019-04-04T23:51:55.317Z,6.87
2019-04-04T23:54:41.867Z,7.05
2019-04-04T23:57:28.239Z,6.70
